Time;durP1;ratioP1;P1;durP2;ratioP2;P2;SDS_P1;SDS_P2;PMS_P1;PMS_P2;Temp;Humidity;BMP_temperature;BMP_pressure;BME280_temperature;BME280_humidity;BME280_pressure;Samples;Min_cycle;Max_cycle;Signal;HPM_P1;HPM_P2
2023/07/08 00:00:23;;;;;;;0.10;0.10;;;22.70;99.90;;;;;;5023010;28;20175;-83
2023/07/08 00:02:49;;;;;;;0.10;0.10;;;22.70;99.90;;;;;;5019672;28;20194;-83
2023/07/08 00:05:17;;;;;;;0.10;0.10;;;22.60;99.90;;;;;;5021926;28;20244;-82
2023/07/08 00:07:43;;;;;;;0.10;0.10;;;22.50;99.90;;;;;;5020440;28;20237;-83
2023/07/08 00:10:18;;;;;;;0.10;0.10;;;22.50;99.90;;;;;;5021668;28;21106;-83
2023/07/08 00:12:45;;;;;;;0.10;0.10;;;22.50;99.90;;;;;;5021092;28;20664;-83
2023/07/08 00:15:12;;;;;;;0.10;0.10;;;22.50;99.90;;;;;;5023612;28;20214;-83
2023/07/08 00:17:37;;;;;;;0.10;0.10;;;22.50;99.90;;;;;;5020005;28;20222;-83
2023/07/08 00:20:46;;;;;;;0.10;0.10;;;22.50;99.90;;;;;;5022573;28;20186;-83
2023/07/08 00:23:12;;;;;;;0.10;0.10;;;22.50;99.90;;;;;;4984426;28;20718;-83
2023/07/08 00:25:38;;;;;;;0.10;0.10;;;22.50;99.90;;;;;;4993597;28;20351;-83
2023/07/08 00:28:16;;;;;;;0.10;0.10;;;22.50;99.90;;;;;;5006229;28;20240;-82
2023/07/08 00:30:41;;;;;;;0.10;0.10;;;22.50;99.90;;;;;;5023795;28;20265;-83
2023/07/08 00:33:07;;;;;;;0.10;0.10;;;22.60;99.90;;;;;;5020653;28;20261;-82
2023/07/08 00:35:34;;;;;;;0.10;0.10;;;22.60;99.90;;;;;;5023526;28;21307;-83
2023/07/08 00:38:03;;;;;;;0.10;0.10;;;22.50;99.90;;;;;;5023405;28;20206;-83
2023/07/08 00:40:31;;;;;;;0.10;0.10;;;22.50;99.90;;;;;;5021365;28;20225;-83
2023/07/08 00:43:00;;;;;;;0.10;0.10;;;22.60;99.90;;;;;;5019838;28;20179;-83
2023/07/08 00:45:35;;;;;;;0.10;0.10;;;22.70;99.90;;;;;;5022687;28;20228;-83
2023/07/08 00:48:25;;;;;;;0.10;0.10;;;22.70;99.90;;;;;;5020219;28;20210;-83
2023/07/08 00:50:51;;;;;;;0.10;0.10;;;22.80;99.90;;;;;;5021152;28;20190;-83
2023/07/08 00:53:31;;;;;;;0.10;0.10;;;22.90;99.90;;;;;;5020549;28;20273;-83
2023/07/08 00:56:02;;;;;;;0.10;0.10;;;23.00;99.90;;;;;;5022652;28;20277;-83
2023/07/08 00:58:55;;;;;;;0.10;0.10;;;23.00;99.90;;;;;;5023396;28;20202;-83
2023/07/08 01:01:21;;;;;;;0.10;0.10;;;23.00;99.90;;;;;;5013302;28;20190;-83
2023/07/08 01:04:14;;;;;;;0.10;0.10;;;23.00;99.90;;;;;;5017877;28;20189;-83
2023/07/08 01:06:57;;;;;;;0.10;0.10;;;22.90;99.90;;;;;;5019933;28;20218;-83
2023/07/08 01:09:25;;;;;;;0.10;0.10;;;23.00;99.90;;;;;;5021585;28;20186;-83
2023/07/08 01:11:51;;;;;;;0.10;0.10;;;23.00;99.90;;;;;;5020331;28;20551;-82
2023/07/08 01:14:20;;;;;;;0.10;0.10;;;23.00;99.90;;;;;;5021499;28;20294;-83
2023/07/08 01:16:46;;;;;;;0.10;0.10;;;22.90;99.90;;;;;;5019533;28;20207;-83
2023/07/08 01:19:16;;;;;;;0.10;0.10;;;22.70;99.90;;;;;;5020750;28;20580;-83
2023/07/08 01:21:54;;;;;;;0.10;0.10;;;22.40;99.90;;;;;;5020088;28;20265;-83
2023/07/08 01:24:19;;;;;;;0.10;0.10;;;22.20;99.90;;;;;;5017994;28;20216;-83
2023/07/08 01:26:46;;;;;;;0.10;0.10;;;22.00;99.90;;;;;;5019544;28;20679;-83
2023/07/08 01:29:12;;;;;;;0.10;0.10;;;21.90;99.90;;;;;;5020203;28;20199;-83
2023/07/08 01:31:37;;;;;;;0.10;0.10;;;21.90;99.90;;;;;;5021462;28;20246;-83
2023/07/08 01:34:04;;;;;;;0.10;0.10;;;21.90;99.90;;;;;;5019527;28;20842;-83
2023/07/08 01:36:36;;;;;;;0.10;0.10;;;21.80;99.90;;;;;;5020520;28;20712;-83
2023/07/08 01:39:03;;;;;;;0.10;0.10;;;21.70;99.90;;;;;;5020842;28;20193;-83
2023/07/08 01:41:28;;;;;;;0.10;0.10;;;21.60;99.90;;;;;;5020151;28;20190;-83
2023/07/08 01:43:54;;;;;;;0.10;0.10;;;21.60;99.90;;;;;;5018609;28;20239;-82
2023/07/08 01:46:25;;;;;;;0.10;0.10;;;21.50;99.90;;;;;;5020242;28;20217;-83
2023/07/08 01:48:57;;;;;;;0.10;0.10;;;21.60;99.90;;;;;;5020510;28;20194;-83
2023/07/08 01:51:25;;;;;;;0.10;0.10;;;21.70;99.90;;;;;;5020982;28;20186;-83
2023/07/08 01:53:51;;;;;;;0.10;0.10;;;21.70;99.90;;;;;;5019977;28;20187;-83
2023/07/08 01:56:16;;;;;;;0.10;0.10;;;21.90;99.90;;;;;;5018715;28;20202;-83
2023/07/08 01:58:42;;;;;;;0.10;0.10;;;22.00;99.90;;;;;;5018152;28;20222;-83
2023/07/08 02:01:09;;;;;;;0.10;0.10;;;22.10;99.90;;;;;;5018871;28;20252;-83
2023/07/08 02:03:35;;;;;;;0.10;0.10;;;22.20;99.90;;;;;;5018741;28;20186;-83
2023/07/08 02:06:01;;;;;;;0.10;0.10;;;22.20;99.90;;;;;;5019479;28;21656;-83
2023/07/08 02:08:27;;;;;;;0.10;0.10;;;22.20;99.90;;;;;;5022135;28;20187;-83
2023/07/08 02:10:56;;;;;;;0.10;0.10;;;22.20;99.90;;;;;;5017573;28;20198;-83
2023/07/08 02:13:23;;;;;;;0.10;0.10;;;22.20;99.90;;;;;;5018762;28;20654;-83
2023/07/08 02:15:49;;;;;;;0.10;0.10;;;22.20;99.90;;;;;;5019524;28;20218;-83
2023/07/08 02:18:15;;;;;;;0.10;0.10;;;22.10;99.90;;;;;;5019923;28;20213;-83
2023/07/08 02:20:42;;;;;;;0.10;0.10;;;22.10;99.90;;;;;;5018601;28;20698;-83
2023/07/08 02:23:07;;;;;;;0.10;0.10;;;22.00;99.90;;;;;;5020331;28;20548;-83
2023/07/08 02:25:33;;;;;;;0.10;0.10;;;21.70;99.90;;;;;;5017734;28;20187;-83
2023/07/08 02:27:58;;;;;;;0.10;0.10;;;21.40;99.90;;;;;;5019042;28;20213;-83
2023/07/08 02:30:24;;;;;;;0.10;0.10;;;21.20;99.90;;;;;;5019621;28;20280;-83
2023/07/08 02:32:56;;;;;;;0.10;0.10;;;21.00;99.90;;;;;;5018103;28;20182;-83
2023/07/08 02:35:26;;;;;;;0.10;0.10;;;21.00;99.90;;;;;;5017870;28;20671;-83
2023/07/08 02:37:53;;;;;;;0.10;0.10;;;21.00;99.90;;;;;;5022283;28;20202;-83
2023/07/08 02:40:19;;;;;;;0.10;0.10;;;20.90;99.90;;;;;;5017458;28;21033;-81
2023/07/08 02:42:44;;;;;;;0.10;0.10;;;20.90;99.90;;;;;;5018489;28;20767;-81
2023/07/08 02:45:10;;;;;;;0.10;0.10;;;21.00;99.90;;;;;;5019665;28;20255;-80
2023/07/08 02:47:36;;;;;;;0.10;0.10;;;21.10;99.90;;;;;;5019872;28;20213;-81
2023/07/08 02:50:02;;;;;;;0.20;0.20;;;21.20;99.90;;;;;;5019893;28;20186;-81
2023/07/08 02:52:27;;;;;;;0.10;0.10;;;21.30;99.90;;;;;;5020157;28;21173;-81
2023/07/08 02:54:53;;;;;;;0.10;0.10;;;21.40;99.90;;;;;;5017625;28;20185;-81
2023/07/08 02:57:18;;;;;;;0.10;0.10;;;21.50;99.90;;;;;;5018991;28;20206;-81
2023/07/08 02:59:44;;;;;;;0.10;0.10;;;21.60;99.90;;;;;;5019678;28;20194;-81
2023/07/08 03:02:09;;;;;;;0.10;0.10;;;21.60;99.90;;;;;;5020435;28;20239;-81
2023/07/08 03:04:39;;;;;;;0.10;0.10;;;21.50;99.90;;;;;;5019275;28;20289;-81
2023/07/08 03:07:06;;;;;;;0.10;0.10;;;21.60;99.90;;;;;;5021093;28;20209;-81
2023/07/08 03:09:32;;;;;;;0.10;0.10;;;21.30;99.90;;;;;;5019635;28;20190;-81
2023/07/08 03:11:58;;;;;;;0.10;0.10;;;21.40;99.90;;;;;;5017087;28;20186;-81
2023/07/08 03:14:24;;;;;;;0.10;0.10;;;21.30;99.90;;;;;;5022503;28;20219;-81
2023/07/08 03:16:50;;;;;;;0.10;0.10;;;21.10;99.90;;;;;;5024056;28;20253;-81
2023/07/08 03:19:17;;;;;;;0.10;0.10;;;21.00;99.90;;;;;;5021084;28;20208;-81
2023/07/08 03:21:43;;;;;;;0.10;0.10;;;21.00;99.90;;;;;;5022604;28;20175;-81
2023/07/08 03:24:13;;;;;;;0.10;0.10;;;21.00;99.90;;;;;;5020781;28;20252;-81
2023/07/08 03:26:38;;;;;;;0.10;0.10;;;21.00;99.90;;;;;;5021935;28;20213;-81
2023/07/08 03:29:04;;;;;;;0.10;0.10;;;21.20;99.90;;;;;;5022020;28;20187;-81
2023/07/08 03:31:30;;;;;;;0.10;0.10;;;21.30;99.90;;;;;;5021620;28;20190;-81
2023/07/08 03:33:55;;;;;;;0.10;0.10;;;21.50;99.90;;;;;;5020593;28;20190;-80
2023/07/08 03:36:24;;;;;;;0.10;0.10;;;21.70;99.90;;;;;;5024082;28;20201;-81
2023/07/08 03:38:55;;;;;;;0.10;0.10;;;21.90;99.90;;;;;;5021817;28;20320;-81
2023/07/08 03:41:21;;;;;;;0.10;0.10;;;22.00;99.90;;;;;;5024015;28;20183;-81
2023/07/08 03:43:47;;;;;;;0.10;0.10;;;22.10;99.90;;;;;;5022406;28;20179;-81
2023/07/08 03:46:16;;;;;;;0.10;0.10;;;22.50;99.90;;;;;;5019701;28;20211;-81
2023/07/08 03:48:42;;;;;;;0.10;0.10;;;23.00;99.90;;;;;;5019640;28;20187;-81
2023/07/08 03:51:15;;;;;;;0.10;0.10;;;23.30;99.90;;;;;;5019700;28;20242;-83
2023/07/08 03:53:40;;;;;;;0.10;0.10;;;23.20;99.90;;;;;;5020606;28;20225;-83
2023/07/08 03:56:11;;;;;;;0.10;0.10;;;23.10;99.90;;;;;;5022846;28;20699;-82
2023/07/08 03:58:36;;;;;;;0.10;0.10;;;22.70;99.90;;;;;;5021644;28;20332;-83
2023/07/08 04:01:02;;;;;;;0.10;0.10;;;22.20;99.90;;;;;;5020851;28;20671;-81
2023/07/08 04:03:27;;;;;;;0.10;0.10;;;21.90;99.90;;;;;;5020311;28;20228;-81
2023/07/08 04:05:53;;;;;;;0.10;0.10;;;22.10;99.90;;;;;;5020927;28;20198;-81
2023/07/08 04:08:18;;;;;;;0.10;0.10;;;22.30;99.90;;;;;;5022473;28;20182;-81
2023/07/08 04:10:44;;;;;;;0.10;0.10;;;22.50;99.90;;;;;;5020791;28;20182;-82
2023/07/08 04:13:09;;;;;;;0.10;0.10;;;22.80;99.90;;;;;;5023610;28;20744;-81
2023/07/08 04:15:35;;;;;;;0.10;0.10;;;24.10;99.90;;;;;;5021459;28;20855;-81
2023/07/08 04:18:00;;;;;;;0.10;0.10;;;25.10;99.90;;;;;;5023306;28;20214;-81
2023/07/08 04:20:26;;;;;;;0.10;0.10;;;25.80;99.90;;;;;;5022939;28;20194;-81
2023/07/08 04:22:51;;;;;;;0.10;0.10;;;26.70;99.90;;;;;;5022237;28;20185;-82
2023/07/08 04:25:18;;;;;;;0.10;0.10;;;27.30;99.90;;;;;;5021084;28;20189;-81
2023/07/08 04:27:44;;;;;;;0.10;0.10;;;26.80;99.90;;;;;;5017495;28;20787;-81
2023/07/08 04:30:21;;;;;;;0.10;0.10;;;26.10;99.90;;;;;;5016462;28;20205;-82
2023/07/08 04:32:46;;;;;;;0.10;0.10;;;25.20;99.90;;;;;;5027446;28;20198;-82
2023/07/08 04:35:12;;;;;;;0.10;0.10;;;24.60;99.90;;;;;;5031673;28;20196;-82
2023/07/08 04:37:38;;;;;;;0.10;0.10;;;24.30;99.90;;;;;;5031013;28;20275;-82
2023/07/08 04:40:05;;;;;;;0.10;0.10;;;24.00;99.90;;;;;;5029710;28;20186;-82
2023/07/08 04:42:30;;;;;;;0.10;0.10;;;23.70;99.90;;;;;;5030627;28;20178;-82
2023/07/08 04:44:56;;;;;;;0.10;0.10;;;23.50;99.90;;;;;;5032259;28;20209;-81
2023/07/08 04:47:21;;;;;;;0.10;0.10;;;23.30;99.90;;;;;;5033109;28;20672;-82
2023/07/08 04:49:47;;;;;;;0.10;0.10;;;23.10;99.90;;;;;;5027380;28;20193;-82
2023/07/08 04:52:12;;;;;;;0.10;0.10;;;23.10;99.90;;;;;;5027226;28;20193;-82
2023/07/08 04:54:38;;;;;;;0.10;0.10;;;23.00;99.90;;;;;;5023608;28;20659;-81
2023/07/08 04:57:04;;;;;;;0.10;0.10;;;22.90;99.90;;;;;;5026632;28;20771;-81
2023/07/08 04:59:34;;;;;;;0.10;0.10;;;22.90;99.90;;;;;;5023286;28;20186;-81
2023/07/08 05:02:00;;;;;;;0.10;0.10;;;22.90;99.90;;;;;;5021606;28;20904;-81
2023/07/08 05:04:25;;;;;;;0.10;0.10;;;22.80;99.90;;;;;;5023595;28;20194;-81
2023/07/08 05:06:51;;;;;;;0.10;0.10;;;22.80;99.90;;;;;;5022752;28;20226;-81
2023/07/08 05:09:17;;;;;;;0.10;0.10;;;22.50;99.90;;;;;;5019754;28;20190;-81
2023/07/08 05:11:43;;;;;;;0.10;0.10;;;22.50;99.90;;;;;;5020765;28;20559;-81
2023/07/08 05:14:12;;;;;;;0.10;0.10;;;22.30;99.90;;;;;;5020321;28;20645;-81
2023/07/08 05:16:38;;;;;;;0.10;0.10;;;22.00;99.90;;;;;;5020992;28;20206;-82
2023/07/08 05:19:03;;;;;;;0.10;0.10;;;21.90;99.90;;;;;;5020380;28;20175;-83
2023/07/08 05:21:33;;;;;;;0.10;0.10;;;22.00;99.90;;;;;;5019477;28;20350;-83
2023/07/08 05:23:59;;;;;;;0.30;0.30;;;22.10;99.90;;;;;;5026194;28;20209;-82
2023/07/08 05:26:25;;;;;;;0.10;0.10;;;22.40;99.90;;;;;;5022726;28;20436;-82
2023/07/08 05:28:50;;;;;;;0.10;0.10;;;22.50;99.90;;;;;;5018866;28;20193;-82
2023/07/08 05:31:16;;;;;;;0.10;0.10;;;22.60;99.90;;;;;;5020936;28;20208;-82
2023/07/08 05:33:41;;;;;;;0.10;0.10;;;22.90;99.90;;;;;;5023930;28;20182;-82
2023/07/08 05:36:07;;;;;;;0.10;0.10;;;23.10;99.90;;;;;;5017730;28;20210;-82
2023/07/08 05:38:33;;;;;;;0.10;0.10;;;23.20;99.90;;;;;;5020592;28;20199;-81
2023/07/08 05:40:59;;;;;;;0.10;0.10;;;23.30;99.90;;;;;;5016567;28;20267;-81
2023/07/08 05:43:25;;;;;;;0.10;0.10;;;23.50;99.90;;;;;;5020833;28;21301;-81
2023/07/08 05:45:51;;;;;;;0.10;0.10;;;23.60;99.90;;;;;;5020724;28;20178;-81
2023/07/08 05:48:17;;;;;;;0.10;0.10;;;23.60;99.90;;;;;;5023273;28;20269;-82
2023/07/08 05:50:44;;;;;;;0.10;0.10;;;23.70;99.90;;;;;;5019181;28;20204;-81
2023/07/08 05:53:10;;;;;;;0.10;0.10;;;23.70;99.90;;;;;;5019866;28;20715;-82
2023/07/08 05:55:36;;;;;;;0.10;0.10;;;23.80;99.90;;;;;;5021274;28;20591;-82
2023/07/08 05:58:02;;;;;;;0.10;0.10;;;23.70;99.90;;;;;;5016026;28;20225;-82
2023/07/08 06:00:27;;;;;;;0.10;0.10;;;23.30;99.90;;;;;;5022046;28;20561;-82
2023/07/08 06:02:53;;;;;;;0.10;0.10;;;23.50;99.90;;;;;;5020253;28;20668;-82
2023/07/08 06:05:18;;;;;;;0.10;0.10;;;23.60;99.90;;;;;;5021100;28;20293;-82
2023/07/08 06:07:44;;;;;;;0.10;0.10;;;23.60;99.90;;;;;;5018664;28;21162;-82
2023/07/08 06:10:09;;;;;;;0.10;0.10;;;23.60;99.90;;;;;;5018286;28;20234;-82
2023/07/08 06:12:35;;;;;;;0.10;0.10;;;23.60;99.90;;;;;;5018434;28;20248;-82
2023/07/08 06:15:01;;;;;;;0.10;0.10;;;23.60;99.90;;;;;;5021110;28;20193;-82
2023/07/08 06:17:26;;;;;;;0.10;0.10;;;23.60;99.90;;;;;;5019838;28;20221;-82
2023/07/08 06:19:52;;;;;;;0.10;0.10;;;23.50;99.90;;;;;;5020677;28;20265;-82
2023/07/08 06:22:17;;;;;;;0.10;0.10;;;23.50;99.90;;;;;;5018148;28;20179;-82
2023/07/08 06:24:43;;;;;;;0.10;0.10;;;23.50;99.90;;;;;;5020488;28;20178;-81
2023/07/08 06:27:09;;;;;;;0.10;0.10;;;23.40;99.90;;;;;;5025247;28;20235;-82
2023/07/08 06:29:35;;;;;;;0.10;0.10;;;23.10;99.90;;;;;;5028894;28;20202;-82
2023/07/08 06:32:02;;;;;;;0.10;0.10;;;22.80;99.90;;;;;;5027887;28;20439;-82
2023/07/08 06:34:27;;;;;;;0.10;0.10;;;22.60;99.90;;;;;;5026701;28;20222;-81
2023/07/08 06:36:53;;;;;;;0.10;0.10;;;22.50;99.90;;;;;;5020344;28;20600;-81
2023/07/08 06:39:19;;;;;;;0.10;0.10;;;22.40;99.90;;;;;;5022331;28;20190;-81
2023/07/08 06:41:45;;;;;;;0.10;0.10;;;22.40;99.90;;;;;;5018765;28;20460;-81
2023/07/08 06:44:10;;;;;;;4.87;4.67;;;22.40;99.90;;;;;;5020025;28;20660;-81
2023/07/08 06:46:36;;;;;;;0.10;0.10;;;22.60;99.90;;;;;;5022563;28;21045;-81
2023/07/08 06:49:02;;;;;;;0.10;0.10;;;22.70;99.90;;;;;;5025614;28;20272;-81
2023/07/08 06:51:28;;;;;;;0.10;0.10;;;22.80;99.90;;;;;;5026914;28;20182;-80
2023/07/08 06:53:54;;;;;;;0.10;0.10;;;22.80;99.90;;;;;;5024146;28;20601;-81
2023/07/08 06:56:19;;;;;;;0.10;0.10;;;22.90;99.90;;;;;;5024524;28;20269;-81
2023/07/08 06:58:45;;;;;;;0.10;0.10;;;23.10;99.90;;;;;;5026137;28;20210;-81
2023/07/08 07:01:10;;;;;;;0.10;0.10;;;23.40;99.90;;;;;;5026782;28;20175;-81
2023/07/08 07:03:36;;;;;;;0.10;0.10;;;23.40;99.90;;;;;;5026586;28;20579;-81
2023/07/08 07:06:02;;;;;;;0.10;0.10;;;23.40;99.90;;;;;;5022780;28;20742;-81
2023/07/08 07:08:27;;;;;;;0.10;0.10;;;23.30;99.90;;;;;;5023492;28;20277;-82
2023/07/08 07:10:53;;;;;;;0.10;0.10;;;23.30;99.90;;;;;;5023253;28;20269;-82
2023/07/08 07:13:18;;;;;;;0.10;0.10;;;23.30;99.90;;;;;;5025844;28;20267;-82
2023/07/08 07:15:44;;;;;;;0.10;0.10;;;23.50;99.90;;;;;;5020147;28;20269;-82
2023/07/08 07:18:10;;;;;;;0.10;0.10;;;23.40;99.90;;;;;;5025708;28;20268;-81
2023/07/08 07:20:37;;;;;;;0.10;0.10;;;23.50;99.90;;;;;;5019860;28;20524;-81
2023/07/08 07:23:03;;;;;;;0.10;0.10;;;23.80;99.90;;;;;;5024093;28;20183;-82
2023/07/08 07:25:29;;;;;;;0.10;0.10;;;24.00;99.90;;;;;;5024399;28;20248;-82
2023/07/08 07:27:55;;;;;;;0.10;0.10;;;24.10;99.90;;;;;;5024977;28;20198;-82
2023/07/08 07:30:20;;;;;;;0.10;0.10;;;23.90;99.90;;;;;;5017143;28;20261;-82
2023/07/08 07:32:46;;;;;;;0.10;0.10;;;24.00;99.90;;;;;;5018808;28;20182;-82
2023/07/08 07:35:14;;;;;;;0.10;0.10;;;24.20;99.90;;;;;;5022276;28;20647;-82
2023/07/08 07:37:41;;;;;;;0.10;0.10;;;24.60;99.90;;;;;;5020620;28;20210;-82
2023/07/08 07:40:12;;;;;;;0.10;0.10;;;25.10;99.90;;;;;;5019095;28;20700;-81
2023/07/08 07:42:38;;;;;;;0.10;0.10;;;25.60;99.90;;;;;;5026528;28;20174;-82
2023/07/08 07:45:05;;;;;;;0.10;0.10;;;25.90;99.90;;;;;;5022743;28;20186;-82
2023/07/08 07:47:31;;;;;;;0.10;0.10;;;26.20;99.90;;;;;;5024192;28;20225;-81
2023/07/08 07:49:56;;;;;;;0.10;0.10;;;26.40;99.90;;;;;;5024545;28;20182;-82
2023/07/08 07:52:24;;;;;;;0.20;0.20;;;26.60;99.90;;;;;;5024025;28;20186;-82
2023/07/08 07:54:51;;;;;;;0.10;0.10;;;27.00;99.90;;;;;;5023835;28;20820;-82
2023/07/08 07:57:16;;;;;;;0.10;0.10;;;27.40;99.90;;;;;;5025691;28;20293;-82
2023/07/08 07:59:42;;;;;;;0.10;0.10;;;27.50;99.90;;;;;;5025092;28;20269;-82
2023/07/08 08:02:08;;;;;;;0.10;0.10;;;27.90;99.90;;;;;;5024010;28;20178;-82
2023/07/08 08:04:34;;;;;;;0.10;0.10;;;27.40;99.90;;;;;;5022904;28;20179;-82
2023/07/08 08:06:59;;;;;;;0.10;0.10;;;27.80;99.90;;;;;;5025268;28;20218;-82
2023/07/08 08:09:25;;;;;;;0.10;0.10;;;28.30;99.90;;;;;;5024941;28;20186;-82
2023/07/08 08:11:51;;;;;;;0.10;0.10;;;27.90;99.90;;;;;;5023220;28;20175;-82
2023/07/08 08:14:17;;;;;;;0.10;0.10;;;28.40;99.90;;;;;;5024146;28;20330;-82
2023/07/08 08:16:43;;;;;;;0.10;0.10;;;28.90;99.90;;;;;;5022214;28;22323;-82
2023/07/08 08:19:09;;;;;;;0.10;0.10;;;28.90;99.90;;;;;;5024732;28;20183;-82
2023/07/08 08:21:34;;;;;;;0.10;0.10;;;29.00;99.90;;;;;;5025742;28;20687;-82
2023/07/08 08:24:00;;;;;;;0.10;0.10;;;29.40;99.90;;;;;;5021738;28;20189;-82
2023/07/08 08:26:26;;;;;;;0.10;0.10;;;28.90;99.90;;;;;;5025129;28;20203;-82
2023/07/08 08:28:51;;;;;;;0.68;0.65;;;28.80;99.90;;;;;;5024296;28;20210;-82
2023/07/08 08:31:17;;;;;;;0.10;0.10;;;29.30;99.90;;;;;;5022418;28;20190;-82
2023/07/08 08:33:42;;;;;;;0.10;0.10;;;29.70;99.90;;;;;;5024254;28;20230;-82
2023/07/08 08:36:08;;;;;;;0.10;0.10;;;30.40;99.90;;;;;;5023001;28;20255;-82
2023/07/08 08:38:33;;;;;;;0.10;0.10;;;30.70;99.90;;;;;;5023443;28;20230;-82
2023/07/08 08:41:04;;;;;;;0.10;0.10;;;31.20;99.90;;;;;;5024207;28;20745;-82
2023/07/08 08:43:35;;;;;;;0.10;0.10;;;31.40;99.90;;;;;;5027434;28;20183;-82
2023/07/08 08:46:23;;;;;;;0.10;0.10;;;30.90;99.90;;;;;;5019109;28;20183;-82
2023/07/08 08:49:16;;;;;;;0.20;0.20;;;30.80;99.90;;;;;;5028406;28;20292;-82
2023/07/08 08:51:41;;;;;;;0.10;0.10;;;30.90;99.90;;;;;;5027453;28;20652;-83
2023/07/08 08:54:08;;;;;;;0.10;0.10;;;30.30;99.90;;;;;;5025621;28;20240;-82
2023/07/08 08:56:44;;;;;;;0.10;0.10;;;30.30;99.90;;;;;;5024676;28;20277;-82
2023/07/08 08:59:37;;;;;;;0.10;0.10;;;30.00;99.90;;;;;;5024182;28;21247;-82
2023/07/08 09:02:33;;;;;;;0.10;0.10;;;30.10;99.90;;;;;;5024629;28;20182;-82
2023/07/08 09:05:05;;;;;;;0.10;0.10;;;30.50;99.90;;;;;;5023884;28;20550;-82
2023/07/08 09:07:34;;;;;;;0.10;0.10;;;30.60;99.90;;;;;;5023014;28;20214;-82
2023/07/08 09:10:09;;;;;;;0.10;0.10;;;30.70;99.90;;;;;;5023626;28;20190;-82
2023/07/08 09:12:35;;;;;;;0.10;0.10;;;30.60;99.90;;;;;;5023951;28;20186;-82
2023/07/08 09:15:13;;;;;;;0.10;0.10;;;30.50;99.90;;;;;;5023447;28;20191;-82
2023/07/08 09:17:38;;;;;;;0.10;0.10;;;30.40;99.90;;;;;;5022542;28;20217;-82
2023/07/08 09:20:24;;;;;;;0.10;0.10;;;30.50;99.90;;;;;;5024087;28;20174;-82
2023/07/08 09:23:16;;;;;;;0.10;0.10;;;30.60;99.90;;;;;;5024021;28;20224;-82
2023/07/08 09:26:04;;;;;;;0.10;0.10;;;30.50;99.90;;;;;;5033185;28;20258;-82
2023/07/08 09:28:39;;;;;;;0.10;0.10;;;30.50;99.90;;;;;;5022430;28;20182;-82
2023/07/08 09:31:07;;;;;;;0.10;0.10;;;30.20;99.90;;;;;;5022664;28;20659;-82
2023/07/08 09:33:34;;;;;;;0.10;0.10;;;30.30;99.90;;;;;;5025243;28;20196;-83
2023/07/08 09:36:00;;;;;;;0.10;0.10;;;30.50;99.90;;;;;;5022685;28;20197;-82
2023/07/08 09:38:25;;;;;;;0.10;0.10;;;30.40;99.90;;;;;;5023087;28;20570;-82
2023/07/08 09:40:54;;;;;;;0.10;0.10;;;30.40;99.90;;;;;;5020532;28;20186;-83
2023/07/08 09:43:37;;;;;;;0.10;0.10;;;30.10;99.90;;;;;;5035772;28;20668;-82
2023/07/08 09:46:03;;;;;;;0.10;0.10;;;30.20;99.90;;;;;;5026317;28;20182;-82
2023/07/08 09:48:33;;;;;;;0.10;0.10;;;30.20;99.90;;;;;;5020922;28;21096;-81
2023/07/08 09:50:59;;;;;;;0.10;0.10;;;29.80;99.90;;;;;;5017537;28;20190;-81
2023/07/08 09:53:26;;;;;;;0.10;0.10;;;29.20;99.90;;;;;;5022237;28;20271;-81
2023/07/08 09:55:53;;;;;;;0.10;0.10;;;29.10;99.90;;;;;;5022176;28;20188;-82
2023/07/08 09:58:25;;;;;;;0.10;0.10;;;29.10;99.90;;;;;;5021301;28;20234;-82
2023/07/08 10:00:57;;;;;;;0.10;0.10;;;29.30;99.90;;;;;;5022109;28;20179;-81
2023/07/08 10:03:31;;;;;;;0.10;0.10;;;29.80;99.90;;;;;;5022562;28;21228;-81
2023/07/08 10:06:00;;;;;;;0.10;0.10;;;29.90;99.90;;;;;;5023371;28;20252;-82
2023/07/08 10:08:37;;;;;;;10.88;2.92;;;29.30;99.90;;;;;;5023968;28;20174;-82
2023/07/08 10:11:30;;;;;;;0.10;0.10;;;29.30;99.90;;;;;;5021786;28;20209;-82
2023/07/08 10:14:27;;;;;;;0.10;0.10;;;30.00;99.90;;;;;;5018787;28;20210;-81
2023/07/08 10:16:53;;;;;;;0.10;0.10;;;30.20;99.90;;;;;;5018490;28;20210;-81
2023/07/08 10:19:20;;;;;;;0.10;0.10;;;30.50;99.90;;;;;;5020920;28;20191;-82
2023/07/08 10:22:00;;;;;;;0.10;0.10;;;30.20;99.90;;;;;;5024411;28;20300;-81
2023/07/08 10:25:04;;;;;;;0.10;0.10;;;30.60;99.90;;;;;;5039068;28;20182;-81
2023/07/08 10:27:57;;;;;;;0.10;0.10;;;31.20;99.90;;;;;;5013008;28;20906;-82
2023/07/08 10:31:07;;;;;;;0.10;0.10;;;31.20;99.90;;;;;;5028161;28;20186;-81
2023/07/08 10:34:08;;;;;;;0.10;0.10;;;31.20;99.90;;;;;;5029004;28;20178;-82
2023/07/08 10:37:04;;;;;;;0.10;0.10;;;31.30;99.90;;;;;;5030206;28;20247;-82
2023/07/08 10:39:32;;;;;;;0.10;0.10;;;31.20;99.90;;;;;;5029163;28;20190;-81
2023/07/08 10:42:34;;;;;;;0.10;0.10;;;31.60;99.90;;;;;;5031719;28;20186;-81
2023/07/08 10:45:42;;;;;;;0.10;0.10;;;31.40;99.90;;;;;;5035750;28;20182;-80
2023/07/08 10:48:32;;;;;;;0.10;0.10;;;31.30;99.90;;;;;;5000326;28;20211;-80
2023/07/08 10:51:13;;;;;;;0.10;0.10;;;31.70;99.90;;;;;;5048459;28;20178;-80
2023/07/08 10:54:10;;;;;;;0.10;0.10;;;32.00;99.90;;;;;;5036253;28;20182;-81
2023/07/08 10:57:14;;;;;;;0.10;0.10;;;32.20;99.90;;;;;;5033748;28;20248;-80
2023/07/08 11:00:07;;;;;;;0.10;0.10;;;32.30;99.90;;;;;;5010898;28;20198;-81
2023/07/08 11:03:00;;;;;;;0.10;0.10;;;31.60;99.90;;;;;;5037339;28;20186;-81
2023/07/08 11:05:50;;;;;;;0.10;0.10;;;31.30;99.90;;;;;;5032254;28;20222;-81
2023/07/08 11:08:27;;;;;;;0.10;0.10;;;31.30;99.90;;;;;;5029024;28;20174;-81
2023/07/08 11:11:14;;;;;;;0.10;0.10;;;31.20;99.90;;;;;;5028522;28;20217;-81
2023/07/08 11:13:46;;;;;;;0.10;0.10;;;31.80;99.90;;;;;;5030008;28;20186;-81
2023/07/08 11:16:35;;;;;;;0.10;0.10;;;32.20;99.90;;;;;;5029296;28;20300;-81
2023/07/08 11:19:11;;;;;;;0.10;0.10;;;32.40;99.90;;;;;;5031600;28;20284;-81
2023/07/08 11:21:43;;;;;;;0.20;0.20;;;32.20;99.90;;;;;;5033042;28;20258;-81
2023/07/08 11:24:28;;;;;;;0.10;0.10;;;32.20;99.90;;;;;;5029648;28;20257;-81
2023/07/08 11:26:58;;;;;;;0.10;0.10;;;32.60;99.90;;;;;;5028062;28;20277;-81
2023/07/08 11:29:41;;;;;;;0.10;0.10;;;32.70;99.90;;;;;;5030749;28;20185;-81
2023/07/08 11:32:26;;;;;;;0.10;0.10;;;33.00;99.90;;;;;;5033401;28;20189;-81
2023/07/08 11:34:53;;;;;;;0.10;0.10;;;33.20;99.90;;;;;;5029147;28;20175;-81
2023/07/08 11:37:21;;;;;;;0.10;0.10;;;33.30;99.90;;;;;;5026410;28;20215;-81
2023/07/08 11:40:17;;;;;;;0.10;0.10;;;33.30;99.90;;;;;;5028344;28;20179;-81
2023/07/08 11:42:47;;;;;;;0.10;0.10;;;32.80;99.90;;;;;;5038832;28;20209;-81
2023/07/08 11:45:18;;;;;;;0.10;0.10;;;33.00;99.90;;;;;;5027911;28;20190;-81
2023/07/08 11:47:46;;;;;;;0.10;0.10;;;32.90;99.90;;;;;;5029553;28;20206;-81
2023/07/08 11:50:24;;;;;;;0.10;0.10;;;33.10;99.90;;;;;;5030429;28;20187;-81
2023/07/08 11:52:58;;;;;;;0.10;0.10;;;33.40;99.90;;;;;;5030952;28;20177;-81
2023/07/08 11:55:46;;;;;;;0.10;0.10;;;33.60;99.90;;;;;;5030797;28;20255;-81
2023/07/08 11:58:27;;;;;;;0.10;0.10;;;33.60;99.90;;;;;;5030004;28;20706;-81
2023/07/08 12:00:59;;;;;;;0.20;0.20;;;33.80;99.90;;;;;;5027385;28;20555;-81
2023/07/08 12:03:37;;;;;;;0.10;0.10;;;33.20;99.90;;;;;;5029406;28;20707;-82
2023/07/08 12:06:26;;;;;;;0.10;0.10;;;33.40;99.90;;;;;;5027899;28;20194;-82
2023/07/08 12:08:57;;;;;;;0.10;0.10;;;33.70;99.90;;;;;;5037750;28;20190;-80
2023/07/08 12:11:35;;;;;;;0.10;0.10;;;33.90;99.90;;;;;;5038233;28;20183;-82
2023/07/08 12:14:06;;;;;;;0.10;0.10;;;33.30;99.90;;;;;;5032558;28;20244;-82
2023/07/08 12:16:32;;;;;;;0.10;0.10;;;33.50;99.90;;;;;;5035264;28;20230;-81
2023/07/08 12:19:00;;;;;;;0.10;0.10;;;33.80;99.90;;;;;;5030558;28;20206;-81
2023/07/08 12:21:27;;;;;;;0.10;0.10;;;34.10;99.90;;;;;;5031849;28;20940;-81
2023/07/08 12:23:54;;;;;;;0.10;0.10;;;34.30;99.90;;;;;;5030007;28;20179;-82
2023/07/08 12:26:21;;;;;;;0.10;0.10;;;34.40;99.90;;;;;;5032287;28;20687;-82
2023/07/08 12:28:47;;;;;;;0.10;0.10;;;34.30;99.90;;;;;;5032522;28;20194;-82
2023/07/08 12:31:16;;;;;;;3.15;3.05;;;33.90;99.90;;;;;;5032187;28;20201;-81
2023/07/08 12:33:43;;;;;;;0.20;0.20;;;33.50;99.90;;;;;;5029962;28;20210;-82
2023/07/08 12:36:12;;;;;;;0.10;0.10;;;33.70;99.90;;;;;;5030192;28;20187;-81
2023/07/08 12:38:44;;;;;;;0.10;0.10;;;33.90;99.90;;;;;;5028474;28;20210;-82
2023/07/08 12:41:14;;;;;;;0.10;0.10;;;34.20;99.90;;;;;;5024106;28;20734;-82
2023/07/08 12:43:39;;;;;;;0.10;0.10;;;33.80;99.90;;;;;;5024745;28;20194;-82
2023/07/08 12:46:08;;;;;;;0.10;0.10;;;33.70;99.90;;;;;;5029950;28;20187;-82
2023/07/08 12:48:34;;;;;;;0.10;0.10;;;33.90;99.90;;;;;;5027967;28;20247;-82
2023/07/08 12:51:00;;;;;;;0.10;0.10;;;33.90;99.90;;;;;;5026794;28;20195;-82
2023/07/08 12:53:26;;;;;;;0.10;0.10;;;34.20;99.90;;;;;;5025872;28;20197;-82
2023/07/08 12:55:54;;;;;;;0.10;0.10;;;34.20;99.90;;;;;;5017662;28;20252;-82
2023/07/08 12:58:25;;;;;;;0.10;0.10;;;34.40;99.90;;;;;;5025388;28;20305;-82
2023/07/08 13:00:52;;;;;;;21.75;20.63;;;34.40;99.90;;;;;;5026187;28;20182;-82